createdAt,value
2022-09-28T00:02:57.830Z,5.80
2022-09-28T00:08:51.456Z,6.40
2022-09-28T00:14:46.317Z,6.23
2022-09-28T00:20:39.634Z,5.17
2022-09-28T00:26:35.218Z,4.60
2022-09-28T00:32:30.277Z,6.53
2022-09-28T00:38:23.543Z,7.07
2022-09-28T00:44:50.686Z,3.87
2022-09-28T00:50:46.214Z,4.63
2022-09-28T00:56:42.651Z,3.80
2022-09-28T01:02:36.604Z,4.03
2022-09-28T01:08:32.566Z,3.50
2022-09-28T01:14:26.552Z,4.77
2022-09-28T01:20:35.074Z,4.63
2022-09-28T01:27:03.384Z,4.40
2022-09-28T01:33:03.889Z,5.07
2022-09-28T01:39:02.590Z,5.60
2022-09-28T01:45:02.697Z,5.93
2022-09-28T01:51:00.524Z,6.80
2022-09-28T01:56:58.385Z,4.77
2022-09-28T02:02:57.596Z,5.70
2022-09-28T02:09:06.292Z,5.40
2022-09-28T02:15:13.819Z,6.53
2022-09-28T02:21:13.077Z,5.37
2022-09-28T02:27:13.986Z,5.67
2022-09-28T02:33:15.013Z,6.00
2022-09-28T02:39:17.223Z,6.60
2022-09-28T02:45:20.456Z,6.93
2022-09-28T02:51:25.225Z,6.40
2022-09-28T02:57:31.889Z,5.90
2022-09-28T03:03:34.353Z,7.17
2022-09-28T03:09:34.057Z,6.77
2022-09-28T03:15:30.997Z,6.80
2022-09-28T03:21:24.411Z,7.60
2022-09-28T03:27:17.781Z,6.87
2022-09-28T03:33:12.398Z,9.00
2022-09-28T03:39:05.791Z,8.20
2022-09-28T03:44:59.278Z,10.80
2022-09-28T03:50:56.116Z,7.83
2022-09-28T03:56:50.133Z,8.70
2022-09-28T04:02:43.447Z,11.00
2022-09-28T04:08:38.743Z,11.60
2022-09-28T04:14:32.069Z,15.23
2022-09-28T04:20:25.466Z,11.63
2022-09-28T04:26:35.482Z,11.23
2022-09-28T04:32:28.744Z,10.20
2022-09-28T04:38:35.861Z,9.50
2022-09-28T04:44:36.903Z,10.07
2022-09-28T04:50:34.519Z,8.50
2022-09-28T04:56:43.462Z,9.03
2022-09-28T05:02:37.777Z,13.27
2022-09-28T05:09:02.988Z,9.40
2022-09-28T05:14:56.858Z,8.80
2022-09-28T05:20:51.618Z,9.30
2022-09-28T05:26:45.180Z,10.70
2022-09-28T05:32:41.276Z,8.90
2022-09-28T05:38:45.727Z,9.50
2022-09-28T05:44:39.528Z,9.53
2022-09-28T05:50:33.187Z,10.10
2022-09-28T05:56:28.415Z,10.03
2022-09-28T06:02:21.934Z,12.17
2022-09-28T06:08:15.592Z,11.33
2022-09-28T06:14:14.845Z,10.50
2022-09-28T06:20:09.381Z,10.70
2022-09-28T06:26:21.615Z,11.37
2022-09-28T06:32:16.774Z,10.70
2022-09-28T06:38:13.032Z,14.27
2022-09-28T06:44:06.398Z,13.90
2022-09-28T06:50:19.694Z,17.60
2022-09-28T06:56:37.418Z,14.27
2022-09-28T07:02:31.670Z,13.23
2022-09-28T07:08:36.905Z,13.13
2022-09-28T07:15:05.684Z,15.63
2022-09-28T07:21:03.083Z,17.70
2022-09-28T07:26:59.859Z,15.83
2022-09-28T07:33:03.372Z,17.53
2022-09-28T07:39:13.521Z,15.80
2022-09-28T07:45:09.506Z,15.43
2022-09-28T07:51:03.018Z,18.67
2022-09-28T07:57:07.788Z,21.57
2022-09-28T08:03:16.214Z,18.03
2022-09-28T08:09:09.927Z,19.77
2022-09-28T08:15:38.355Z,26.87
2022-09-28T08:21:48.505Z,20.03
2022-09-28T08:27:41.832Z,24.60
2022-09-28T08:33:36.439Z,23.77
2022-09-28T08:39:49.630Z,22.97
2022-09-28T08:45:49.375Z,21.87
2022-09-28T08:52:02.376Z,24.77
2022-09-28T08:58:20.259Z,23.50
2022-09-28T09:04:14.853Z,21.37
2022-09-28T09:10:48.696Z,21.57
2022-09-28T09:17:00.398Z,21.17
2022-09-28T09:23:20.657Z,21.83
2022-09-28T09:29:31.100Z,23.97
2022-09-28T09:35:46.466Z,21.30
2022-09-28T09:42:12.439Z,19.37
2022-09-28T09:48:35.439Z,19.40
2022-09-28T09:54:35.478Z,19.13
2022-09-28T10:00:29.061Z,17.93
2022-09-28T10:06:36.638Z,13.37
2022-09-28T10:12:32.685Z,20.27
2022-09-28T10:18:28.576Z,18.57
2022-09-28T10:24:45.509Z,18.43
2022-09-28T10:30:42.340Z,21.47
2022-09-28T10:36:48.500Z,20.70
2022-09-28T10:42:42.765Z,27.07
2022-09-28T10:48:49.797Z,18.77
2022-09-28T10:54:54.394Z,15.83
2022-09-28T11:00:50.531Z,14.57
2022-09-28T11:06:47.200Z,14.23
2022-09-28T11:12:45.977Z,11.67
2022-09-28T11:18:39.669Z,13.43
2022-09-28T11:24:37.380Z,16.63
2022-09-28T11:30:34.230Z,15.10
2022-09-28T11:37:01.429Z,14.30
2022-09-28T11:43:09.085Z,12.93
2022-09-28T11:49:12.414Z,12.00
2022-09-28T11:55:13.226Z,9.27
2022-09-28T12:01:18.872Z,12.30
2022-09-28T12:07:40.515Z,8.37
2022-09-28T12:13:44.686Z,6.63
2022-09-28T12:19:46.630Z,8.13
2022-09-28T12:25:46.573Z,7.20
2022-09-28T12:31:44.871Z,6.67
2022-09-28T12:38:09.111Z,5.80
2022-09-28T12:44:24.722Z,7.97
2022-09-28T12:50:40.289Z,6.20
2022-09-28T12:56:43.540Z,6.20
2022-09-28T13:03:02.469Z,4.80
2022-09-28T13:09:13.440Z,5.70
2022-09-28T13:15:32.415Z,6.57
2022-09-28T13:21:34.434Z,5.10
2022-09-28T13:27:34.809Z,6.70
2022-09-28T13:33:37.430Z,6.10
2022-09-28T13:39:51.979Z,4.20
2022-09-28T13:45:55.050Z,5.53
2022-09-28T13:52:03.071Z,4.07
2022-09-28T13:58:01.749Z,9.00
2022-09-28T14:03:57.577Z,6.20
2022-09-28T14:10:17.846Z,7.10
2022-09-28T14:16:25.067Z,7.70
2022-09-28T14:22:26.534Z,4.57
2022-09-28T14:28:44.098Z,6.00
2022-09-28T14:34:40.147Z,5.13
2022-09-28T14:41:08.760Z,4.30
2022-09-28T14:47:27.552Z,3.77
2022-09-28T14:53:25.176Z,3.63
2022-09-28T14:59:20.769Z,2.80
2022-09-28T15:05:19.419Z,4.20
2022-09-28T15:11:16.608Z,3.67
2022-09-28T15:17:11.572Z,3.23
2022-09-28T15:23:06.297Z,3.07
2022-09-28T15:29:03.515Z,3.17
2022-09-28T15:34:58.921Z,2.80
2022-09-28T15:40:53.506Z,5.67
2022-09-28T15:46:49.140Z,3.30
2022-09-28T15:52:47.418Z,2.40
2022-09-28T15:59:05.274Z,3.63
2022-09-28T16:05:01.714Z,2.17
2022-09-28T16:11:08.221Z,3.23
2022-09-28T16:17:02.114Z,1.53
2022-09-28T16:22:58.139Z,3.10
2022-09-28T16:28:56.651Z,2.17
2022-09-28T16:34:52.535Z,1.97
2022-09-28T16:40:49.807Z,3.27
2022-09-28T16:46:46.283Z,4.03
2022-09-28T16:52:58.015Z,3.33
2022-09-28T16:58:55.201Z,3.27
2022-09-28T17:04:48.462Z,3.77
2022-09-28T17:11:09.723Z,4.80
2022-09-28T17:17:09.066Z,4.17
2022-09-28T17:23:03.441Z,4.60
2022-09-28T17:28:56.663Z,4.83
2022-09-28T17:35:00.750Z,3.80
2022-09-28T17:40:58.390Z,4.30
2022-09-28T17:46:54.299Z,5.20
2022-09-28T17:52:52.440Z,4.50
2022-09-28T17:58:45.821Z,4.43
2022-09-28T18:04:51.930Z,4.43
2022-09-28T18:10:47.245Z,5.10
2022-09-28T18:16:40.554Z,9.20
2022-09-28T18:22:33.831Z,7.03
2022-09-28T18:28:28.520Z,6.00
2022-09-28T18:34:21.913Z,6.93
2022-09-28T18:40:15.561Z,9.03
2022-09-28T18:46:11.399Z,7.97
2022-09-28T18:52:04.724Z,7.27
2022-09-28T18:57:57.981Z,7.17
2022-09-28T19:03:52.877Z,7.07
2022-09-28T19:09:46.215Z,13.47
2022-09-28T19:15:39.534Z,7.63
2022-09-28T19:21:34.381Z,9.10
2022-09-28T19:27:27.752Z,8.53
2022-09-28T19:33:21.007Z,22.47
2022-09-28T19:39:16.598Z,9.97
2022-09-28T19:45:11.229Z,7.60
2022-09-28T19:51:06.909Z,8.07
2022-09-28T19:57:02.545Z,8.50
2022-09-28T20:02:56.067Z,12.40
2022-09-28T20:08:49.436Z,9.03
2022-09-28T20:14:44.078Z,9.70
2022-09-28T20:20:37.638Z,10.37
2022-09-28T20:26:30.716Z,9.17
2022-09-28T20:32:25.713Z,11.90
2022-09-28T20:38:20.019Z,12.10
2022-09-28T20:44:14.714Z,10.37
2022-09-28T20:50:13.339Z,11.20
2022-09-28T20:56:21.487Z,12.63
2022-09-28T21:02:22.516Z,11.10
2022-09-28T21:08:19.731Z,11.03
2022-09-28T21:14:14.244Z,10.33
2022-09-28T21:20:10.291Z,9.00
2022-09-28T21:26:11.668Z,11.30
2022-09-28T21:32:06.787Z,11.73
2022-09-28T21:38:02.845Z,12.40
2022-09-28T21:43:58.778Z,13.57
2022-09-28T21:50:04.877Z,14.60
2022-09-28T21:56:02.527Z,14.23
2022-09-28T22:01:59.938Z,11.07
2022-09-28T22:07:57.382Z,10.87
2022-09-28T22:13:53.502Z,11.57
2022-09-28T22:19:53.062Z,11.80
2022-09-28T22:25:47.730Z,11.07
2022-09-28T22:31:43.347Z,11.40
2022-09-28T22:37:39.699Z,9.90
2022-09-28T22:43:35.534Z,10.10
2022-09-28T22:49:30.594Z,11.70
2022-09-28T22:55:29.307Z,10.37
2022-09-28T23:01:28.899Z,11.40
2022-09-28T23:07:26.218Z,9.00
2022-09-28T23:13:25.501Z,11.90
2022-09-28T23:19:20.694Z,9.10
2022-09-28T23:25:15.817Z,8.73
2022-09-28T23:31:14.102Z,8.60
2022-09-28T23:37:09.107Z,11.10
2022-09-28T23:43:06.303Z,9.40
2022-09-28T23:49:03.642Z,8.73
2022-09-28T23:55:02.851Z,9.20
